createdAt,value
2022-12-31T00:01:52.307Z,304.70
2022-12-31T00:04:21.810Z,320.25
2022-12-31T00:06:52.804Z,251.60
2022-12-31T00:09:22.269Z,257.90
2022-12-31T00:11:52.036Z,229.05
2022-12-31T00:14:21.577Z,246.65
2022-12-31T00:16:51.047Z,212.35
2022-12-31T00:19:20.463Z,226.93
2022-12-31T00:21:50.460Z,237.77
2022-12-31T00:24:21.080Z,180.82
2022-12-31T00:26:53.129Z,173.25
2022-12-31T00:29:22.165Z,221.63
2022-12-31T00:31:51.813Z,204.73
2022-12-31T00:34:20.632Z,196.77
2022-12-31T00:36:50.616Z,236.18
2022-12-31T00:39:21.269Z,257.70
2022-12-31T00:41:51.201Z,193.55
2022-12-31T00:44:20.406Z,234.63
2022-12-31T00:46:49.427Z,201.75
2022-12-31T00:49:18.771Z,207.13
2022-12-31T00:51:47.933Z,198.98
2022-12-31T00:54:16.658Z,197.65
2022-12-31T00:56:48.557Z,187.90
2022-12-31T00:59:18.801Z,179.13
2022-12-31T01:01:48.335Z,175.90
2022-12-31T01:04:19.535Z,172.38
2022-12-31T01:06:49.153Z,199.88
2022-12-31T01:09:18.526Z,196.43
2022-12-31T01:11:49.275Z,190.40
2022-12-31T01:14:19.548Z,238.30
2022-12-31T01:16:51.149Z,182.65
2022-12-31T01:19:21.848Z,193.82
2022-12-31T01:21:51.740Z,204.82
2022-12-31T01:24:21.839Z,238.73
2022-12-31T01:26:52.896Z,205.13
2022-12-31T01:29:22.365Z,247.25
2022-12-31T01:31:51.886Z,163.70
2022-12-31T01:34:21.456Z,219.82
2022-12-31T01:36:50.956Z,316.63
2022-12-31T01:39:19.868Z,250.88
2022-12-31T01:41:49.993Z,283.17
2022-12-31T01:44:37.524Z,273.50
2022-12-31T01:47:14.746Z,381.77
2022-12-31T01:52:17.816Z,295.30
2022-12-31T01:54:49.491Z,268.13
2022-12-31T01:57:19.051Z,279.77
2022-12-31T01:59:49.404Z,382.25
2022-12-31T02:02:20.663Z,240.57
2022-12-31T02:04:52.573Z,281.13
2022-12-31T02:07:21.679Z,267.55
2022-12-31T02:09:51.674Z,274.15
2022-12-31T02:12:21.158Z,441.85
2022-12-31T02:14:52.388Z,405.77
2022-12-31T02:17:28.553Z,382.55
2022-12-31T02:20:20.605Z,212.93
2022-12-31T02:23:01.185Z,197.98
2022-12-31T02:25:46.878Z,310.25
2022-12-31T02:28:22.039Z,284.08
2022-12-31T02:30:56.840Z,226.98
2022-12-31T02:33:30.317Z,160.82
2022-12-31T02:36:01.522Z,369.30
2022-12-31T02:38:31.648Z,201.88
2022-12-31T02:41:01.027Z,205.05
2022-12-31T02:43:30.097Z,345.52
2022-12-31T02:46:06.443Z,263.88
2022-12-31T02:51:12.493Z,303.90
2022-12-31T02:56:12.538Z,208.73
2022-12-31T02:59:08.502Z,274.00
2022-12-31T03:01:58.840Z,222.00
2022-12-31T03:04:36.504Z,400.00
2022-12-31T03:07:06.725Z,362.50
2022-12-31T03:09:37.080Z,369.00
2022-12-31T03:12:23.927Z,368.73
2022-12-31T03:14:53.793Z,283.33
2022-12-31T03:17:25.125Z,280.80
2022-12-31T03:20:20.077Z,193.10
2022-12-31T03:22:51.671Z,304.08
2022-12-31T03:25:35.026Z,221.40
2022-12-31T03:28:05.023Z,217.45
2022-12-31T03:30:34.945Z,164.32
2022-12-31T03:33:06.807Z,179.25
2022-12-31T03:35:37.713Z,288.45
2022-12-31T03:38:07.002Z,240.93
2022-12-31T03:40:39.453Z,196.43
2022-12-31T03:43:08.979Z,168.40
2022-12-31T03:45:39.473Z,168.13
2022-12-31T03:48:10.692Z,240.02
2022-12-31T03:50:40.006Z,160.75
2022-12-31T03:53:08.897Z,172.65
2022-12-31T03:55:38.178Z,145.15
2022-12-31T03:58:07.783Z,64.25
2022-12-31T04:00:36.879Z,95.60
2022-12-31T04:03:06.422Z,83.68
2022-12-31T04:05:37.302Z,79.82
2022-12-31T04:08:07.776Z,86.68
2022-12-31T04:10:38.868Z,79.57
2022-12-31T04:13:07.819Z,91.32
2022-12-31T04:15:36.534Z,73.93
2022-12-31T04:18:06.173Z,95.80
2022-12-31T04:20:36.371Z,64.10
2022-12-31T04:23:08.171Z,67.32
2022-12-31T04:25:37.588Z,57.88
2022-12-31T04:28:07.073Z,48.47
2022-12-31T04:30:36.094Z,51.40
2022-12-31T04:33:05.491Z,54.78
2022-12-31T04:35:34.902Z,50.28
2022-12-31T04:38:04.974Z,82.82
2022-12-31T04:40:35.857Z,60.95
2022-12-31T04:43:05.124Z,62.70
2022-12-31T04:45:34.796Z,65.00
2022-12-31T04:48:03.720Z,72.82
2022-12-31T04:50:33.479Z,64.68
2022-12-31T04:53:02.605Z,67.00
2022-12-31T04:55:32.557Z,63.22
2022-12-31T04:58:05.159Z,77.95
2022-12-31T05:00:36.020Z,74.15
2022-12-31T05:03:10.192Z,80.50
2022-12-31T05:05:42.819Z,62.85
2022-12-31T05:08:11.412Z,78.80
2022-12-31T05:10:43.320Z,55.30
2022-12-31T05:13:14.638Z,66.35
2022-12-31T05:15:44.885Z,80.22
2022-12-31T05:18:13.685Z,62.20
2022-12-31T05:20:42.653Z,63.22
2022-12-31T05:23:12.739Z,56.55
2022-12-31T05:25:41.680Z,60.65
2022-12-31T05:28:11.926Z,64.38
2022-12-31T05:30:43.600Z,50.63
2022-12-31T05:33:13.533Z,75.55
2022-12-31T05:35:42.872Z,71.88
2022-12-31T05:38:13.129Z,68.22
2022-12-31T05:40:42.829Z,61.83
2022-12-31T05:43:12.624Z,64.78
2022-12-31T05:45:44.339Z,72.18
2022-12-31T05:48:13.605Z,69.90
2022-12-31T05:50:42.818Z,69.65
2022-12-31T05:53:12.806Z,70.15
2022-12-31T05:55:41.678Z,56.72
2022-12-31T05:58:11.678Z,75.60
2022-12-31T06:00:42.007Z,66.70
2022-12-31T06:03:12.943Z,63.08
2022-12-31T06:05:43.425Z,76.00
2022-12-31T06:08:12.574Z,77.88
2022-12-31T06:10:42.927Z,69.57
2022-12-31T06:13:12.564Z,68.20
2022-12-31T06:15:41.496Z,64.97
2022-12-31T06:18:15.189Z,70.32
2022-12-31T06:20:44.388Z,67.22
2022-12-31T06:23:14.140Z,66.45
2022-12-31T06:25:42.895Z,91.22
2022-12-31T06:28:19.494Z,85.10
2022-12-31T06:30:49.436Z,80.65
2022-12-31T06:33:21.230Z,73.47
2022-12-31T06:35:50.325Z,81.78
2022-12-31T06:38:21.336Z,82.43
2022-12-31T06:40:50.877Z,67.13
2022-12-31T06:43:20.074Z,96.28
2022-12-31T06:45:48.665Z,65.63
2022-12-31T06:48:18.915Z,81.07
2022-12-31T06:50:50.043Z,104.63
2022-12-31T06:53:21.102Z,80.15
2022-12-31T06:55:50.400Z,105.05
2022-12-31T06:58:19.967Z,86.65
2022-12-31T07:00:52.758Z,89.10
2022-12-31T07:03:28.529Z,95.60
2022-12-31T07:06:00.095Z,102.93
2022-12-31T07:08:41.597Z,96.30
2022-12-31T07:11:15.743Z,119.45
2022-12-31T07:14:09.322Z,94.35
2022-12-31T07:16:45.494Z,98.75
2022-12-31T07:19:21.264Z,120.53
2022-12-31T07:21:53.087Z,100.83
2022-12-31T07:24:23.288Z,80.07
2022-12-31T07:27:00.686Z,80.32
2022-12-31T07:29:34.945Z,80.57
2022-12-31T07:32:09.486Z,91.47
2022-12-31T07:34:43.844Z,90.20
2022-12-31T07:37:16.466Z,79.50
2022-12-31T07:39:54.737Z,100.88
2022-12-31T07:45:00.859Z,62.20
2022-12-31T07:47:30.601Z,70.53
2022-12-31T07:50:01.864Z,78.95
2022-12-31T07:52:33.774Z,71.13
2022-12-31T07:55:02.049Z,84.75
2022-12-31T07:57:35.870Z,80.07
2022-12-31T08:00:07.444Z,72.95
2022-12-31T08:02:55.920Z,70.88
2022-12-31T08:05:26.595Z,66.82
2022-12-31T08:07:58.232Z,83.32
2022-12-31T08:10:30.746Z,68.10
2022-12-31T08:13:02.427Z,60.60
2022-12-31T08:15:31.782Z,69.68
2022-12-31T08:18:01.529Z,73.57
2022-12-31T08:20:32.666Z,64.45
2022-12-31T08:23:20.253Z,65.10
2022-12-31T08:25:58.743Z,47.58
2022-12-31T08:28:47.780Z,46.20
2022-12-31T08:31:19.126Z,45.80
2022-12-31T08:33:52.019Z,49.42
2022-12-31T08:36:27.281Z,47.80
2022-12-31T08:38:59.273Z,41.08
2022-12-31T08:41:31.055Z,47.97
2022-12-31T08:44:09.156Z,47.35
2022-12-31T08:46:40.803Z,42.75
2022-12-31T08:49:10.868Z,49.47
2022-12-31T08:51:40.043Z,44.83
2022-12-31T08:54:11.606Z,46.35
2022-12-31T08:56:50.632Z,50.70
2022-12-31T08:59:27.119Z,46.70
2022-12-31T09:02:03.791Z,40.65
2022-12-31T09:04:41.470Z,46.88
2022-12-31T09:07:12.166Z,42.22
2022-12-31T09:09:47.429Z,43.33
2022-12-31T09:12:21.187Z,43.63
2022-12-31T09:14:52.357Z,45.33
2022-12-31T09:17:48.143Z,46.35
2022-12-31T09:20:19.554Z,43.00
2022-12-31T09:22:48.742Z,47.83
2022-12-31T09:25:19.116Z,54.42
2022-12-31T09:28:07.155Z,51.13
2022-12-31T09:30:40.443Z,48.17
2022-12-31T09:33:12.490Z,58.40
2022-12-31T09:35:49.416Z,50.17
2022-12-31T09:38:35.052Z,46.55
2022-12-31T09:41:25.677Z,50.00
2022-12-31T09:44:29.051Z,51.78
2022-12-31T09:47:19.066Z,57.22
2022-12-31T09:50:28.698Z,49.85
2022-12-31T09:53:03.919Z,47.40
2022-12-31T09:55:35.855Z,48.47
2022-12-31T09:58:12.584Z,50.58
2022-12-31T10:03:26.713Z,54.85
2022-12-31T10:06:05.084Z,54.75
2022-12-31T10:08:40.361Z,54.90
2022-12-31T10:11:15.748Z,49.33
2022-12-31T10:13:49.664Z,46.47
2022-12-31T10:16:26.674Z,41.50
2022-12-31T10:19:14.861Z,42.22
2022-12-31T10:21:51.288Z,39.28
2022-12-31T10:24:34.976Z,39.08
2022-12-31T10:27:15.662Z,35.20
2022-12-31T10:29:49.103Z,34.70
2022-12-31T10:32:24.977Z,35.35
2022-12-31T10:35:02.733Z,37.13
2022-12-31T10:37:41.231Z,35.58
2022-12-31T10:40:24.388Z,34.83
2022-12-31T10:43:22.737Z,34.83
2022-12-31T10:46:09.865Z,33.42
2022-12-31T10:49:00.330Z,35.05
2022-12-31T10:51:45.519Z,32.63
2022-12-31T10:54:32.696Z,29.08
2022-12-31T10:57:09.851Z,28.85
2022-12-31T11:00:05.495Z,63.08
2022-12-31T11:02:52.161Z,35.75
2022-12-31T11:05:34.179Z,32.50
2022-12-31T11:08:13.908Z,28.90
2022-12-31T11:10:55.753Z,28.80
2022-12-31T11:13:43.432Z,30.55
2022-12-31T11:16:26.032Z,34.33
2022-12-31T11:18:59.182Z,32.88
2022-12-31T11:21:37.877Z,31.58
2022-12-31T11:24:18.626Z,32.40
2022-12-31T11:26:52.011Z,33.47
2022-12-31T11:29:30.725Z,31.02
2022-12-31T11:32:07.903Z,37.17
2022-12-31T11:34:57.766Z,34.40
2022-12-31T11:37:35.139Z,36.58
2022-12-31T11:40:16.855Z,35.95
2022-12-31T11:42:50.331Z,34.30
2022-12-31T11:45:28.643Z,35.03
2022-12-31T11:48:29.703Z,33.60
2022-12-31T11:50:57.207Z,41.22
2022-12-31T11:53:40.496Z,36.15
2022-12-31T11:56:14.004Z,37.60
2022-12-31T11:58:53.340Z,43.03
2022-12-31T12:01:24.834Z,39.55
2022-12-31T12:03:55.000Z,42.47
2022-12-31T12:06:27.178Z,42.20
2022-12-31T12:08:58.828Z,39.92
2022-12-31T12:11:29.085Z,41.63
2022-12-31T12:14:00.344Z,42.40
2022-12-31T12:16:29.829Z,41.45
2022-12-31T12:19:06.408Z,44.28
2022-12-31T12:21:35.211Z,43.00
2022-12-31T12:24:05.049Z,41.13
2022-12-31T12:26:36.296Z,43.33
2022-12-31T12:29:17.357Z,38.72
2022-12-31T12:31:56.178Z,38.70
2022-12-31T12:34:28.124Z,42.42
2022-12-31T12:36:57.115Z,37.20
2022-12-31T12:39:27.368Z,38.72
2022-12-31T12:42:03.788Z,35.55
2022-12-31T12:44:32.929Z,36.30
2022-12-31T12:47:03.359Z,38.22
2022-12-31T12:49:34.615Z,36.97
2022-12-31T12:52:10.834Z,36.40
2022-12-31T12:54:45.448Z,42.80
2022-12-31T12:57:18.664Z,40.58
2022-12-31T12:59:54.738Z,43.33
2022-12-31T13:02:38.956Z,40.25
2022-12-31T13:05:16.386Z,43.60
2022-12-31T13:07:56.592Z,42.05
2022-12-31T13:10:34.339Z,48.67
2022-12-31T13:13:24.962Z,45.50
2022-12-31T13:15:58.132Z,46.35
2022-12-31T13:18:32.849Z,44.95
2022-12-31T13:21:04.770Z,49.13
2022-12-31T13:23:39.987Z,46.53
2022-12-31T13:26:11.883Z,42.17
2022-12-31T13:28:43.039Z,45.83
2022-12-31T13:31:14.027Z,41.85
2022-12-31T13:33:44.760Z,48.65
2022-12-31T13:36:17.944Z,46.22
2022-12-31T13:38:47.403Z,43.65
2022-12-31T13:41:18.665Z,45.25
2022-12-31T13:43:51.340Z,46.40
2022-12-31T13:46:24.801Z,45.75
2022-12-31T13:48:55.446Z,46.72
2022-12-31T13:51:28.635Z,48.55
2022-12-31T13:54:01.954Z,49.35
2022-12-31T13:56:33.093Z,46.25
2022-12-31T13:59:03.173Z,44.50
2022-12-31T14:01:34.639Z,54.88
2022-12-31T14:04:06.024Z,49.08
2022-12-31T14:06:40.184Z,46.45
2022-12-31T14:09:10.532Z,52.55
2022-12-31T14:11:47.407Z,50.47
2022-12-31T14:14:22.020Z,49.55
2022-12-31T14:16:53.583Z,48.53
2022-12-31T14:19:33.202Z,49.70
2022-12-31T14:22:10.072Z,56.30
2022-12-31T14:24:44.307Z,57.08
2022-12-31T14:27:18.078Z,50.85
2022-12-31T14:29:49.650Z,61.97
2022-12-31T14:32:27.398Z,57.28
2022-12-31T14:35:00.385Z,64.03
2022-12-31T14:37:32.928Z,63.67
2022-12-31T14:40:08.094Z,58.95
2022-12-31T14:42:40.428Z,60.85
2022-12-31T14:45:19.297Z,58.72
2022-12-31T14:47:53.995Z,62.53
2022-12-31T14:50:24.016Z,70.22
2022-12-31T14:52:55.455Z,62.33
2022-12-31T14:55:29.234Z,66.57
2022-12-31T14:58:27.079Z,64.80
2022-12-31T15:00:54.365Z,65.70
2022-12-31T15:03:38.936Z,61.40
2022-12-31T15:06:28.962Z,64.13
2022-12-31T15:09:08.620Z,57.28
2022-12-31T15:11:53.370Z,57.95
2022-12-31T15:14:37.263Z,52.72
2022-12-31T15:17:12.334Z,61.90
2022-12-31T15:19:54.227Z,58.92
2022-12-31T15:22:29.163Z,62.47
2022-12-31T15:25:01.243Z,62.20
2022-12-31T15:27:33.155Z,58.95
2022-12-31T15:30:02.231Z,63.40
2022-12-31T15:32:36.388Z,65.85
2022-12-31T15:35:06.119Z,69.53
2022-12-31T15:37:36.737Z,72.85
2022-12-31T15:40:25.960Z,69.07
2022-12-31T15:42:56.747Z,82.45
2022-12-31T15:45:27.941Z,84.32
2022-12-31T15:47:57.696Z,100.53
2022-12-31T15:50:27.197Z,77.35
2022-12-31T15:53:05.414Z,69.15
2022-12-31T15:55:44.526Z,56.97
2022-12-31T15:58:14.403Z,58.70
2022-12-31T16:00:54.714Z,65.57
2022-12-31T16:03:25.874Z,54.45
2022-12-31T16:05:57.102Z,55.03
2022-12-31T16:08:27.843Z,61.25
2022-12-31T16:10:59.080Z,58.30
2022-12-31T16:13:29.860Z,63.53
2022-12-31T16:16:03.403Z,57.22
2022-12-31T16:18:38.324Z,66.32
2022-12-31T16:21:07.753Z,69.85
2022-12-31T16:23:50.511Z,66.63
2022-12-31T16:26:20.949Z,64.15
2022-12-31T16:28:50.187Z,57.95
2022-12-31T16:31:20.175Z,61.67
2022-12-31T16:33:49.285Z,66.95
2022-12-31T16:36:21.142Z,66.38
2022-12-31T16:38:49.892Z,66.95
2022-12-31T16:41:19.682Z,65.82
2022-12-31T16:43:50.732Z,56.50
2022-12-31T16:46:26.290Z,62.00
2022-12-31T16:48:59.721Z,63.55
2022-12-31T16:51:30.503Z,76.68
2022-12-31T16:54:00.042Z,69.55
2022-12-31T16:56:33.266Z,68.68
2022-12-31T16:59:04.931Z,69.13
2022-12-31T17:01:38.436Z,65.22
2022-12-31T17:04:10.428Z,72.18
2022-12-31T17:06:38.741Z,85.43
2022-12-31T17:09:14.254Z,82.32
2022-12-31T17:11:48.364Z,81.00
2022-12-31T17:14:18.750Z,87.22
2022-12-31T17:17:05.158Z,81.22
2022-12-31T17:19:38.938Z,85.10
2022-12-31T17:22:10.456Z,90.45
2022-12-31T17:24:39.897Z,90.85
2022-12-31T17:27:09.947Z,90.32
2022-12-31T17:29:41.058Z,86.40
2022-12-31T17:32:28.213Z,86.15
2022-12-31T17:34:56.645Z,95.35
2022-12-31T17:37:26.944Z,114.32
2022-12-31T17:40:17.071Z,105.07
2022-12-31T17:42:47.708Z,106.93
2022-12-31T17:45:21.332Z,108.45
2022-12-31T17:47:52.767Z,106.45
2022-12-31T17:50:30.677Z,100.03
2022-12-31T17:53:05.467Z,93.85
2022-12-31T17:55:34.571Z,82.68
2022-12-31T17:58:04.864Z,107.53
2022-12-31T18:00:34.900Z,122.13
2022-12-31T18:03:03.370Z,103.97
2022-12-31T18:05:32.469Z,97.40
2022-12-31T18:08:01.241Z,99.20
2022-12-31T18:10:34.193Z,92.57
2022-12-31T18:13:04.931Z,92.63
2022-12-31T18:15:34.896Z,94.40
2022-12-31T18:18:03.757Z,88.18
2022-12-31T18:20:32.288Z,103.03
2022-12-31T18:23:00.580Z,95.80
2022-12-31T18:25:29.071Z,104.50
2022-12-31T18:27:58.072Z,100.78
2022-12-31T18:30:27.558Z,104.70
2022-12-31T18:32:57.693Z,106.97
2022-12-31T18:36:06.584Z,111.05
2022-12-31T18:38:15.629Z,100.25
2022-12-31T18:40:46.853Z,110.40
2022-12-31T18:43:16.834Z,104.97
2022-12-31T18:45:45.543Z,100.93
2022-12-31T18:48:16.713Z,116.95
2022-12-31T18:50:45.607Z,128.50
2022-12-31T18:53:16.705Z,127.93
2022-12-31T18:55:47.732Z,125.15
2022-12-31T18:58:16.677Z,129.38
2022-12-31T19:00:46.039Z,127.30
2022-12-31T19:03:17.903Z,124.72
2022-12-31T19:05:49.982Z,121.88
2022-12-31T19:08:18.744Z,130.32
2022-12-31T19:10:48.388Z,124.53
2022-12-31T19:13:17.692Z,123.75
2022-12-31T19:15:48.018Z,128.52
2022-12-31T19:18:18.345Z,132.00
2022-12-31T19:20:47.229Z,117.00
2022-12-31T19:23:16.592Z,125.30
2022-12-31T19:25:45.211Z,125.63
2022-12-31T19:28:16.851Z,124.80
2022-12-31T19:30:45.947Z,116.78
2022-12-31T19:33:15.232Z,119.45
2022-12-31T19:35:46.147Z,114.30
2022-12-31T19:38:16.794Z,115.32
2022-12-31T19:40:45.760Z,103.82
2022-12-31T19:43:15.705Z,96.40
2022-12-31T19:45:45.589Z,111.18
2022-12-31T19:48:15.071Z,103.70
2022-12-31T19:50:46.877Z,101.20
2022-12-31T19:53:22.046Z,97.53
2022-12-31T19:55:51.016Z,92.63
2022-12-31T19:58:20.609Z,90.93
2022-12-31T20:00:55.876Z,90.50
2022-12-31T20:03:34.174Z,93.28
2022-12-31T20:06:06.028Z,86.43
2022-12-31T20:08:34.560Z,88.15
2022-12-31T20:11:08.972Z,82.05
2022-12-31T20:13:37.737Z,85.07
2022-12-31T20:16:07.381Z,87.88
2022-12-31T20:18:37.630Z,75.93
2022-12-31T20:21:10.660Z,80.20
2022-12-31T20:23:39.563Z,76.05
2022-12-31T20:26:08.625Z,73.05
2022-12-31T20:28:37.415Z,77.38
2022-12-31T20:31:06.878Z,80.82
2022-12-31T20:33:35.206Z,83.05
2022-12-31T20:36:04.817Z,72.85
2022-12-31T20:38:35.103Z,68.18
2022-12-31T20:41:07.168Z,75.32
2022-12-31T20:43:36.079Z,81.63
2022-12-31T20:46:12.585Z,78.03
2022-12-31T20:48:43.943Z,77.88
2022-12-31T20:51:13.280Z,76.72
2022-12-31T20:53:46.574Z,71.65
2022-12-31T20:56:15.244Z,69.95
2022-12-31T20:58:43.721Z,66.28
2022-12-31T21:01:12.955Z,63.90
2022-12-31T21:06:31.545Z,61.58
2022-12-31T21:09:02.475Z,66.05
2022-12-31T21:11:48.286Z,70.65
2022-12-31T21:14:16.715Z,68.30
2022-12-31T21:16:45.505Z,69.68
2022-12-31T21:19:14.527Z,59.72
2022-12-31T21:21:42.999Z,56.30
2022-12-31T21:24:17.458Z,60.50
2022-12-31T21:26:49.266Z,69.57
2022-12-31T21:29:17.573Z,57.17
2022-12-31T21:31:45.867Z,54.30
2022-12-31T21:34:14.170Z,56.17
2022-12-31T21:36:42.933Z,57.00
2022-12-31T21:39:13.097Z,56.20
2022-12-31T21:41:54.422Z,60.33
2022-12-31T21:44:23.679Z,54.33
2022-12-31T21:47:33.258Z,50.35
2022-12-31T21:49:44.103Z,49.95
2022-12-31T21:52:30.488Z,52.30
2022-12-31T21:55:18.233Z,52.63
2022-12-31T21:58:24.323Z,65.22
2022-12-31T22:00:52.710Z,52.70
2022-12-31T22:03:28.069Z,49.80
2022-12-31T22:06:00.885Z,57.67
2022-12-31T22:08:30.663Z,66.07
2022-12-31T22:11:00.385Z,53.25
2022-12-31T22:13:29.254Z,50.60
2022-12-31T22:16:04.779Z,46.38
2022-12-31T22:18:35.822Z,46.97
2022-12-31T22:21:05.362Z,44.58
2022-12-31T22:23:34.531Z,41.17
2022-12-31T22:26:04.584Z,53.58
2022-12-31T22:28:39.021Z,50.42
2022-12-31T22:31:08.431Z,48.45
2022-12-31T22:33:36.906Z,46.22
2022-12-31T22:36:06.803Z,47.42
2022-12-31T22:38:36.388Z,40.72
2022-12-31T22:41:07.905Z,45.90
2022-12-31T22:43:37.213Z,85.90
2022-12-31T22:46:11.974Z,51.13
2022-12-31T22:48:41.004Z,48.40
2022-12-31T22:51:10.189Z,48.83
2022-12-31T22:53:39.778Z,48.40
2022-12-31T22:56:09.754Z,57.65
2022-12-31T22:58:38.467Z,50.30
2022-12-31T23:01:07.355Z,56.47
2022-12-31T23:03:35.920Z,54.92
2022-12-31T23:06:04.277Z,53.65
2022-12-31T23:08:33.388Z,47.08
2022-12-31T23:11:00.866Z,55.65
2022-12-31T23:13:50.886Z,56.17
2022-12-31T23:16:36.982Z,55.30
2022-12-31T23:19:23.423Z,51.22
2022-12-31T23:22:09.370Z,43.13
2022-12-31T23:24:38.308Z,48.43
2022-12-31T23:27:07.827Z,43.22
2022-12-31T23:29:46.212Z,51.03
2022-12-31T23:32:15.508Z,54.90
2022-12-31T23:34:45.020Z,53.22
2022-12-31T23:37:14.057Z,57.70
2022-12-31T23:39:43.524Z,68.57
2022-12-31T23:42:12.275Z,97.03
2022-12-31T23:44:42.551Z,117.28
2022-12-31T23:47:11.611Z,122.30
2022-12-31T23:49:40.252Z,114.32
2022-12-31T23:52:08.619Z,105.15
2022-12-31T23:54:40.118Z,89.28
2022-12-31T23:57:08.721Z,79.78
2022-12-31T23:59:38.049Z,79.95
